sensor_id;sensor_type;location;lat;lon;timestamp;P1;durP1;ratioP1;P2;durP2;ratioP2
17818;SDS011;9034;50.284;19.310;2023-06-26T00:00:59;7.80;;;6.60;;
17818;SDS011;9034;50.284;19.310;2023-06-26T00:02:03;7.25;;;6.10;;
17818;SDS011;9034;50.284;19.310;2023-06-26T00:03:05;9.45;;;7.53;;
17818;SDS011;9034;50.284;19.310;2023-06-26T00:04:08;8.60;;;6.70;;
17818;SDS011;9034;50.284;19.310;2023-06-26T00:05:15;6.97;;;5.50;;
17818;SDS011;9034;50.284;19.310;2023-06-26T00:06:18;7.47;;;5.82;;
17818;SDS011;9034;50.284;19.310;2023-06-26T00:07:21;9.55;;;6.93;;
17818;SDS011;9034;50.284;19.310;2023-06-26T00:08:24;7.90;;;7.10;;
17818;SDS011;9034;50.284;19.310;2023-06-26T00:09:26;12.10;;;7.63;;
17818;SDS011;9034;50.284;19.310;2023-06-26T00:10:30;10.10;;;7.50;;
17818;SDS011;9034;50.284;19.310;2023-06-26T00:11:32;10.55;;;7.35;;
17818;SDS011;9034;50.284;19.310;2023-06-26T00:12:35;10.10;;;7.07;;
17818;SDS011;9034;50.284;19.310;2023-06-26T00:13:37;9.80;;;6.63;;
17818;SDS011;9034;50.284;19.310;2023-06-26T00:14:40;9.05;;;6.30;;
17818;SDS011;9034;50.284;19.310;2023-06-26T00:15:42;7.72;;;6.20;;
17818;SDS011;9034;50.284;19.310;2023-06-26T00:16:44;11.10;;;7.70;;
17818;SDS011;9034;50.284;19.310;2023-06-26T00:17:46;7.68;;;6.47;;
17818;SDS011;9034;50.284;19.310;2023-06-26T00:18:49;9.48;;;5.40;;
17818;SDS011;9034;50.284;19.310;2023-06-26T00:19:51;5.60;;;4.95;;
17818;SDS011;9034;50.284;19.310;2023-06-26T00:20:54;6.85;;;5.05;;
17818;SDS011;9034;50.284;19.310;2023-06-26T00:21:56;8.07;;;6.22;;
17818;SDS011;9034;50.284;19.310;2023-06-26T00:23:00;7.38;;;6.65;;
17818;SDS011;9034;50.284;19.310;2023-06-26T00:24:02;8.27;;;6.00;;
17818;SDS011;9034;50.284;19.310;2023-06-26T00:25:05;7.22;;;5.72;;
17818;SDS011;9034;50.284;19.310;2023-06-26T00:26:07;5.13;;;4.63;;
17818;SDS011;9034;50.284;19.310;2023-06-26T00:27:10;6.57;;;5.25;;
17818;SDS011;9034;50.284;19.310;2023-06-26T00:28:12;7.20;;;6.47;;
17818;SDS011;9034;50.284;19.310;2023-06-26T00:29:15;7.97;;;5.63;;
17818;SDS011;9034;50.284;19.310;2023-06-26T00:30:17;6.70;;;5.25;;
17818;SDS011;9034;50.284;19.310;2023-06-26T00:31:20;8.30;;;6.22;;
17818;SDS011;9034;50.284;19.310;2023-06-26T00:32:22;9.32;;;6.00;;
17818;SDS011;9034;50.284;19.310;2023-06-26T00:33:25;8.25;;;5.25;;
17818;SDS011;9034;50.284;19.310;2023-06-26T00:34:27;9.63;;;5.32;;
17818;SDS011;9034;50.284;19.310;2023-06-26T00:35:29;6.75;;;5.30;;
17818;SDS011;9034;50.284;19.310;2023-06-26T00:36:31;5.10;;;4.32;;
17818;SDS011;9034;50.284;19.310;2023-06-26T00:37:35;5.65;;;4.53;;
17818;SDS011;9034;50.284;19.310;2023-06-26T00:38:38;6.47;;;5.03;;
17818;SDS011;9034;50.284;19.310;2023-06-26T00:39:41;9.07;;;5.32;;
17818;SDS011;9034;50.284;19.310;2023-06-26T00:40:43;4.85;;;4.35;;
17818;SDS011;9034;50.284;19.310;2023-06-26T00:41:46;5.53;;;4.47;;
17818;SDS011;9034;50.284;19.310;2023-06-26T00:42:49;6.38;;;4.43;;
17818;SDS011;9034;50.284;19.310;2023-06-26T00:43:52;6.63;;;5.40;;
17818;SDS011;9034;50.284;19.310;2023-06-26T00:44:54;8.57;;;6.05;;
17818;SDS011;9034;50.284;19.310;2023-06-26T00:45:57;7.32;;;5.85;;
17818;SDS011;9034;50.284;19.310;2023-06-26T00:47:00;8.30;;;6.10;;
17818;SDS011;9034;50.284;19.310;2023-06-26T00:48:02;7.40;;;6.32;;
17818;SDS011;9034;50.284;19.310;2023-06-26T00:49:05;7.38;;;6.05;;
17818;SDS011;9034;50.284;19.310;2023-06-26T00:50:07;8.60;;;5.05;;
17818;SDS011;9034;50.284;19.310;2023-06-26T00:51:10;7.53;;;5.55;;
17818;SDS011;9034;50.284;19.310;2023-06-26T00:52:12;9.45;;;5.82;;
17818;SDS011;9034;50.284;19.310;2023-06-26T00:53:15;6.85;;;6.13;;
17818;SDS011;9034;50.284;19.310;2023-06-26T00:54:19;6.57;;;5.60;;
17818;SDS011;9034;50.284;19.310;2023-06-26T00:55:23;8.52;;;5.35;;
17818;SDS011;9034;50.284;19.310;2023-06-26T00:56:27;6.28;;;5.10;;
17818;SDS011;9034;50.284;19.310;2023-06-26T00:57:31;6.93;;;5.05;;
17818;SDS011;9034;50.284;19.310;2023-06-26T00:58:34;7.03;;;4.75;;
17818;SDS011;9034;50.284;19.310;2023-06-26T00:59:37;5.20;;;4.28;;
17818;SDS011;9034;50.284;19.310;2023-06-26T01:00:39;5.63;;;5.03;;
17818;SDS011;9034;50.284;19.310;2023-06-26T01:01:42;7.63;;;5.00;;
17818;SDS011;9034;50.284;19.310;2023-06-26T01:02:44;9.13;;;4.82;;
17818;SDS011;9034;50.284;19.310;2023-06-26T01:03:48;9.07;;;5.03;;
17818;SDS011;9034;50.284;19.310;2023-06-26T01:04:53;7.68;;;5.38;;
17818;SDS011;9034;50.284;19.310;2023-06-26T01:05:56;5.85;;;4.88;;
17818;SDS011;9034;50.284;19.310;2023-06-26T01:06:59;6.55;;;4.90;;
17818;SDS011;9034;50.284;19.310;2023-06-26T01:08:06;7.00;;;5.30;;
17818;SDS011;9034;50.284;19.310;2023-06-26T01:09:09;6.78;;;4.95;;
17818;SDS011;9034;50.284;19.310;2023-06-26T01:10:13;5.85;;;5.25;;
17818;SDS011;9034;50.284;19.310;2023-06-26T01:11:15;8.43;;;5.38;;
17818;SDS011;9034;50.284;19.310;2023-06-26T01:12:18;7.18;;;4.70;;
17818;SDS011;9034;50.284;19.310;2023-06-26T01:13:23;6.07;;;4.95;;
17818;SDS011;9034;50.284;19.310;2023-06-26T01:14:26;6.97;;;5.40;;
17818;SDS011;9034;50.284;19.310;2023-06-26T01:15:28;8.10;;;5.35;;
17818;SDS011;9034;50.284;19.310;2023-06-26T01:16:31;6.78;;;5.50;;
17818;SDS011;9034;50.284;19.310;2023-06-26T01:17:33;7.78;;;5.20;;
17818;SDS011;9034;50.284;19.310;2023-06-26T01:18:37;9.75;;;6.38;;
17818;SDS011;9034;50.284;19.310;2023-06-26T01:19:44;5.60;;;4.68;;
17818;SDS011;9034;50.284;19.310;2023-06-26T01:20:47;5.57;;;4.38;;
17818;SDS011;9034;50.284;19.310;2023-06-26T01:21:49;5.00;;;3.92;;
17818;SDS011;9034;50.284;19.310;2023-06-26T01:22:57;3.88;;;3.40;;
17818;SDS011;9034;50.284;19.310;2023-06-26T01:24:07;4.78;;;4.07;;
17818;SDS011;9034;50.284;19.310;2023-06-26T01:25:29;5.28;;;4.45;;
17818;SDS011;9034;50.284;19.310;2023-06-26T01:26:41;4.60;;;3.92;;
17818;SDS011;9034;50.284;19.310;2023-06-26T01:27:49;4.93;;;4.30;;
17818;SDS011;9034;50.284;19.310;2023-06-26T01:28:53;4.65;;;3.47;;
17818;SDS011;9034;50.284;19.310;2023-06-26T01:29:55;5.85;;;4.00;;
17818;SDS011;9034;50.284;19.310;2023-06-26T01:30:58;11.13;;;3.97;;
17818;SDS011;9034;50.284;19.310;2023-06-26T01:32:00;4.88;;;3.72;;
17818;SDS011;9034;50.284;19.310;2023-06-26T01:33:03;8.70;;;4.75;;
17818;SDS011;9034;50.284;19.310;2023-06-26T01:34:06;20.63;;;4.15;;
17818;SDS011;9034;50.284;19.310;2023-06-26T01:35:09;4.43;;;3.63;;
17818;SDS011;9034;50.284;19.310;2023-06-26T01:36:11;5.55;;;3.15;;
17818;SDS011;9034;50.284;19.310;2023-06-26T01:37:14;4.25;;;3.80;;
17818;SDS011;9034;50.284;19.310;2023-06-26T01:38:48;5.95;;;4.25;;
17818;SDS011;9034;50.284;19.310;2023-06-26T01:39:52;4.75;;;3.78;;
17818;SDS011;9034;50.284;19.310;2023-06-26T01:40:54;5.25;;;3.70;;
17818;SDS011;9034;50.284;19.310;2023-06-26T01:41:58;6.88;;;3.92;;
17818;SDS011;9034;50.284;19.310;2023-06-26T01:43:00;5.35;;;4.15;;
17818;SDS011;9034;50.284;19.310;2023-06-26T01:44:07;4.93;;;4.38;;
17818;SDS011;9034;50.284;19.310;2023-06-26T01:45:17;6.13;;;5.50;;
17818;SDS011;9034;50.284;19.310;2023-06-26T01:46:24;6.15;;;5.07;;
17818;SDS011;9034;50.284;19.310;2023-06-26T01:47:28;5.53;;;4.97;;
17818;SDS011;9034;50.284;19.310;2023-06-26T01:48:34;8.30;;;5.50;;
17818;SDS011;9034;50.284;19.310;2023-06-26T01:49:43;6.85;;;6.00;;
17818;SDS011;9034;50.284;19.310;2023-06-26T01:50:50;7.00;;;4.38;;
17818;SDS011;9034;50.284;19.310;2023-06-26T01:51:55;19.80;;;5.05;;
17818;SDS011;9034;50.284;19.310;2023-06-26T01:53:01;5.93;;;4.95;;
17818;SDS011;9034;50.284;19.310;2023-06-26T01:54:05;6.53;;;5.10;;
17818;SDS011;9034;50.284;19.310;2023-06-26T01:55:12;6.85;;;5.70;;
17818;SDS011;9034;50.284;19.310;2023-06-26T01:56:19;7.00;;;5.90;;
17818;SDS011;9034;50.284;19.310;2023-06-26T01:57:27;7.53;;;6.20;;
17818;SDS011;9034;50.284;19.310;2023-06-26T01:58:29;9.43;;;5.47;;
17818;SDS011;9034;50.284;19.310;2023-06-26T01:59:35;9.23;;;5.80;;
17818;SDS011;9034;50.284;19.310;2023-06-26T02:00:38;8.82;;;6.20;;
17818;SDS011;9034;50.284;19.310;2023-06-26T02:01:42;10.25;;;6.35;;
17818;SDS011;9034;50.284;19.310;2023-06-26T02:02:44;8.32;;;6.28;;
17818;SDS011;9034;50.284;19.310;2023-06-26T02:03:48;6.88;;;5.53;;
17818;SDS011;9034;50.284;19.310;2023-06-26T02:04:50;7.80;;;5.88;;
17818;SDS011;9034;50.284;19.310;2023-06-26T02:05:53;6.18;;;5.03;;
17818;SDS011;9034;50.284;19.310;2023-06-26T02:06:54;7.15;;;5.20;;
17818;SDS011;9034;50.284;19.310;2023-06-26T02:07:57;7.00;;;5.05;;
17818;SDS011;9034;50.284;19.310;2023-06-26T02:09:04;5.07;;;4.15;;
17818;SDS011;9034;50.284;19.310;2023-06-26T02:10:07;5.60;;;4.80;;
17818;SDS011;9034;50.284;19.310;2023-06-26T02:11:09;5.88;;;4.70;;
17818;SDS011;9034;50.284;19.310;2023-06-26T02:12:14;5.70;;;5.10;;
17818;SDS011;9034;50.284;19.310;2023-06-26T02:13:17;6.07;;;5.03;;
17818;SDS011;9034;50.284;19.310;2023-06-26T02:14:20;4.68;;;3.35;;
17818;SDS011;9034;50.284;19.310;2023-06-26T02:15:22;4.90;;;4.10;;
17818;SDS011;9034;50.284;19.310;2023-06-26T02:16:25;3.85;;;3.30;;
17818;SDS011;9034;50.284;19.310;2023-06-26T02:17:26;5.10;;;3.80;;
17818;SDS011;9034;50.284;19.310;2023-06-26T02:18:29;6.78;;;4.82;;
17818;SDS011;9034;50.284;19.310;2023-06-26T02:19:32;15.20;;;4.78;;
17818;SDS011;9034;50.284;19.310;2023-06-26T02:20:35;16.33;;;4.82;;
17818;SDS011;9034;50.284;19.310;2023-06-26T02:21:37;23.80;;;4.35;;
17818;SDS011;9034;50.284;19.310;2023-06-26T02:22:40;7.05;;;4.53;;
17818;SDS011;9034;50.284;19.310;2023-06-26T02:23:43;6.70;;;4.13;;
17818;SDS011;9034;50.284;19.310;2023-06-26T02:24:45;6.10;;;4.63;;
17818;SDS011;9034;50.284;19.310;2023-06-26T02:25:47;6.88;;;5.45;;
17818;SDS011;9034;50.284;19.310;2023-06-26T02:26:50;5.00;;;4.35;;
17818;SDS011;9034;50.284;19.310;2023-06-26T02:27:52;4.72;;;4.25;;
17818;SDS011;9034;50.284;19.310;2023-06-26T02:28:57;4.35;;;3.75;;
17818;SDS011;9034;50.284;19.310;2023-06-26T02:29:59;4.53;;;3.75;;
17818;SDS011;9034;50.284;19.310;2023-06-26T02:31:02;7.32;;;5.82;;
17818;SDS011;9034;50.284;19.310;2023-06-26T02:32:06;6.45;;;4.95;;
17818;SDS011;9034;50.284;19.310;2023-06-26T02:33:09;6.55;;;4.45;;
17818;SDS011;9034;50.284;19.310;2023-06-26T02:34:11;5.75;;;4.97;;
17818;SDS011;9034;50.284;19.310;2023-06-26T02:35:14;7.70;;;5.13;;
17818;SDS011;9034;50.284;19.310;2023-06-26T02:36:16;5.32;;;4.82;;
17818;SDS011;9034;50.284;19.310;2023-06-26T02:37:19;5.75;;;4.28;;
17818;SDS011;9034;50.284;19.310;2023-06-26T02:38:21;5.60;;;4.25;;
17818;SDS011;9034;50.284;19.310;2023-06-26T02:39:24;9.80;;;4.47;;
17818;SDS011;9034;50.284;19.310;2023-06-26T02:40:28;5.57;;;4.57;;
17818;SDS011;9034;50.284;19.310;2023-06-26T02:41:32;4.22;;;3.85;;
17818;SDS011;9034;50.284;19.310;2023-06-26T02:42:34;13.68;;;4.35;;
17818;SDS011;9034;50.284;19.310;2023-06-26T02:43:38;6.30;;;4.22;;
17818;SDS011;9034;50.284;19.310;2023-06-26T02:44:41;5.25;;;4.50;;
17818;SDS011;9034;50.284;19.310;2023-06-26T02:45:44;5.05;;;4.03;;
17818;SDS011;9034;50.284;19.310;2023-06-26T02:46:46;4.25;;;3.70;;
17818;SDS011;9034;50.284;19.310;2023-06-26T02:47:50;6.72;;;5.13;;
17818;SDS011;9034;50.284;19.310;2023-06-26T02:48:52;7.35;;;5.03;;
17818;SDS011;9034;50.284;19.310;2023-06-26T02:49:56;6.47;;;4.75;;
17818;SDS011;9034;50.284;19.310;2023-06-26T02:50:58;5.68;;;4.20;;
17818;SDS011;9034;50.284;19.310;2023-06-26T02:52:06;6.22;;;4.57;;
17818;SDS011;9034;50.284;19.310;2023-06-26T02:53:10;7.93;;;4.32;;
17818;SDS011;9034;50.284;19.310;2023-06-26T02:54:15;9.32;;;4.78;;
17818;SDS011;9034;50.284;19.310;2023-06-26T02:55:19;4.20;;;3.53;;
17818;SDS011;9034;50.284;19.310;2023-06-26T02:56:25;4.13;;;3.67;;
17818;SDS011;9034;50.284;19.310;2023-06-26T02:57:30;4.47;;;3.88;;
17818;SDS011;9034;50.284;19.310;2023-06-26T02:58:32;5.20;;;4.30;;
17818;SDS011;9034;50.284;19.310;2023-06-26T02:59:36;7.60;;;3.70;;
17818;SDS011;9034;50.284;19.310;2023-06-26T03:00:39;5.18;;;4.15;;
17818;SDS011;9034;50.284;19.310;2023-06-26T03:01:46;7.72;;;4.75;;
17818;SDS011;9034;50.284;19.310;2023-06-26T03:02:49;6.20;;;4.43;;
17818;SDS011;9034;50.284;19.310;2023-06-26T03:03:54;7.63;;;4.90;;
17818;SDS011;9034;50.284;19.310;2023-06-26T03:04:56;7.82;;;6.50;;
17818;SDS011;9034;50.284;19.310;2023-06-26T03:05:59;8.65;;;6.45;;
17818;SDS011;9034;50.284;19.310;2023-06-26T03:07:01;7.60;;;5.97;;
17818;SDS011;9034;50.284;19.310;2023-06-26T03:08:05;7.20;;;5.32;;
17818;SDS011;9034;50.284;19.310;2023-06-26T03:09:07;5.25;;;4.22;;
17818;SDS011;9034;50.284;19.310;2023-06-26T03:10:10;6.50;;;5.53;;
17818;SDS011;9034;50.284;19.310;2023-06-26T03:11:12;7.25;;;5.78;;
17818;SDS011;9034;50.284;19.310;2023-06-26T03:12:15;7.93;;;6.85;;
17818;SDS011;9034;50.284;19.310;2023-06-26T03:13:17;11.95;;;8.30;;
17818;SDS011;9034;50.284;19.310;2023-06-26T03:14:20;10.40;;;7.93;;
17818;SDS011;9034;50.284;19.310;2023-06-26T03:15:22;10.50;;;7.03;;
17818;SDS011;9034;50.284;19.310;2023-06-26T03:16:26;8.32;;;6.60;;
17818;SDS011;9034;50.284;19.310;2023-06-26T03:17:28;7.90;;;5.75;;
17818;SDS011;9034;50.284;19.310;2023-06-26T03:18:37;5.70;;;4.60;;
17818;SDS011;9034;50.284;19.310;2023-06-26T03:19:39;5.28;;;4.38;;
17818;SDS011;9034;50.284;19.310;2023-06-26T03:20:53;7.75;;;5.57;;
17818;SDS011;9034;50.284;19.310;2023-06-26T03:21:57;7.18;;;6.30;;
17818;SDS011;9034;50.284;19.310;2023-06-26T03:22:59;8.18;;;6.32;;
17818;SDS011;9034;50.284;19.310;2023-06-26T03:24:02;8.68;;;5.95;;
17818;SDS011;9034;50.284;19.310;2023-06-26T03:25:04;10.95;;;6.97;;
17818;SDS011;9034;50.284;19.310;2023-06-26T03:26:08;9.63;;;7.35;;
17818;SDS011;9034;50.284;19.310;2023-06-26T03:27:11;8.13;;;6.25;;
17818;SDS011;9034;50.284;19.310;2023-06-26T03:28:17;7.45;;;6.55;;
17818;SDS011;9034;50.284;19.310;2023-06-26T03:29:20;9.85;;;7.53;;
17818;SDS011;9034;50.284;19.310;2023-06-26T03:30:24;12.82;;;7.68;;
17818;SDS011;9034;50.284;19.310;2023-06-26T03:31:30;15.00;;;8.20;;
17818;SDS011;9034;50.284;19.310;2023-06-26T03:32:32;14.57;;;9.18;;
17818;SDS011;9034;50.284;19.310;2023-06-26T03:33:34;10.07;;;7.25;;
17818;SDS011;9034;50.284;19.310;2023-06-26T03:34:37;10.50;;;7.65;;
17818;SDS011;9034;50.284;19.310;2023-06-26T03:35:40;13.68;;;9.15;;
17818;SDS011;9034;50.284;19.310;2023-06-26T03:36:45;10.63;;;7.78;;
17818;SDS011;9034;50.284;19.310;2023-06-26T03:37:48;11.15;;;8.88;;
17818;SDS011;9034;50.284;19.310;2023-06-26T03:38:51;13.88;;;9.82;;
17818;SDS011;9034;50.284;19.310;2023-06-26T03:39:59;14.05;;;8.63;;
17818;SDS011;9034;50.284;19.310;2023-06-26T03:41:01;12.75;;;9.38;;
17818;SDS011;9034;50.284;19.310;2023-06-26T03:42:04;16.10;;;10.93;;
17818;SDS011;9034;50.284;19.310;2023-06-26T03:43:06;18.13;;;10.70;;
17818;SDS011;9034;50.284;19.310;2023-06-26T03:44:20;14.43;;;9.68;;
17818;SDS011;9034;50.284;19.310;2023-06-26T03:45:24;12.50;;;9.00;;
17818;SDS011;9034;50.284;19.310;2023-06-26T03:46:30;14.05;;;9.98;;
17818;SDS011;9034;50.284;19.310;2023-06-26T03:47:33;13.57;;;9.95;;
17818;SDS011;9034;50.284;19.310;2023-06-26T03:48:36;14.65;;;10.07;;
17818;SDS011;9034;50.284;19.310;2023-06-26T03:49:41;15.95;;;9.27;;
17818;SDS011;9034;50.284;19.310;2023-06-26T03:50:43;15.68;;;10.18;;
17818;SDS011;9034;50.284;19.310;2023-06-26T03:51:46;15.52;;;9.85;;
17818;SDS011;9034;50.284;19.310;2023-06-26T03:52:48;14.43;;;9.65;;
17818;SDS011;9034;50.284;19.310;2023-06-26T03:53:52;13.75;;;9.40;;
17818;SDS011;9034;50.284;19.310;2023-06-26T03:54:54;13.77;;;10.13;;
17818;SDS011;9034;50.284;19.310;2023-06-26T03:55:57;13.48;;;9.55;;
17818;SDS011;9034;50.284;19.310;2023-06-26T03:57:00;14.23;;;9.25;;
17818;SDS011;9034;50.284;19.310;2023-06-26T03:58:04;14.63;;;10.38;;
17818;SDS011;9034;50.284;19.310;2023-06-26T03:59:06;13.27;;;9.07;;
17818;SDS011;9034;50.284;19.310;2023-06-26T04:00:10;11.40;;;9.30;;
17818;SDS011;9034;50.284;19.310;2023-06-26T04:01:16;17.25;;;9.52;;
17818;SDS011;9034;50.284;19.310;2023-06-26T04:02:25;17.13;;;9.88;;
17818;SDS011;9034;50.284;19.310;2023-06-26T04:03:27;13.57;;;9.55;;
17818;SDS011;9034;50.284;19.310;2023-06-26T04:04:30;15.57;;;9.80;;
17818;SDS011;9034;50.284;19.310;2023-06-26T04:05:33;14.90;;;9.07;;
17818;SDS011;9034;50.284;19.310;2023-06-26T04:06:36;12.43;;;9.70;;
17818;SDS011;9034;50.284;19.310;2023-06-26T04:07:38;12.15;;;8.55;;
17818;SDS011;9034;50.284;19.310;2023-06-26T04:08:41;13.95;;;9.52;;
17818;SDS011;9034;50.284;19.310;2023-06-26T04:09:42;17.38;;;10.10;;
17818;SDS011;9034;50.284;19.310;2023-06-26T04:10:45;15.07;;;10.05;;
17818;SDS011;9034;50.284;19.310;2023-06-26T04:11:49;15.88;;;10.25;;
17818;SDS011;9034;50.284;19.310;2023-06-26T04:12:51;13.40;;;9.60;;
17818;SDS011;9034;50.284;19.310;2023-06-26T04:13:54;17.00;;;10.80;;
17818;SDS011;9034;50.284;19.310;2023-06-26T04:14:57;14.15;;;10.75;;
17818;SDS011;9034;50.284;19.310;2023-06-26T04:16:00;16.50;;;10.48;;
17818;SDS011;9034;50.284;19.310;2023-06-26T04:17:03;14.32;;;10.02;;
17818;SDS011;9034;50.284;19.310;2023-06-26T04:18:07;14.10;;;10.00;;
17818;SDS011;9034;50.284;19.310;2023-06-26T04:19:09;13.80;;;9.55;;
17818;SDS011;9034;50.284;19.310;2023-06-26T04:20:12;13.63;;;9.45;;
17818;SDS011;9034;50.284;19.310;2023-06-26T04:21:14;13.57;;;9.93;;
17818;SDS011;9034;50.284;19.310;2023-06-26T04:22:18;14.57;;;9.98;;
17818;SDS011;9034;50.284;19.310;2023-06-26T04:23:20;12.80;;;9.38;;
17818;SDS011;9034;50.284;19.310;2023-06-26T04:24:22;14.13;;;9.85;;
17818;SDS011;9034;50.284;19.310;2023-06-26T04:25:24;12.07;;;9.48;;
17818;SDS011;9034;50.284;19.310;2023-06-26T04:26:30;15.25;;;9.45;;
17818;SDS011;9034;50.284;19.310;2023-06-26T04:27:32;15.45;;;10.20;;
17818;SDS011;9034;50.284;19.310;2023-06-26T04:28:38;11.93;;;9.20;;
17818;SDS011;9034;50.284;19.310;2023-06-26T04:29:40;15.73;;;10.20;;
17818;SDS011;9034;50.284;19.310;2023-06-26T04:30:43;14.27;;;9.77;;
17818;SDS011;9034;50.284;19.310;2023-06-26T04:31:45;17.92;;;9.48;;
17818;SDS011;9034;50.284;19.310;2023-06-26T04:32:49;13.88;;;9.70;;
17818;SDS011;9034;50.284;19.310;2023-06-26T04:33:52;16.35;;;8.88;;
17818;SDS011;9034;50.284;19.310;2023-06-26T04:34:56;13.77;;;8.63;;
17818;SDS011;9034;50.284;19.310;2023-06-26T04:35:58;17.27;;;10.02;;
17818;SDS011;9034;50.284;19.310;2023-06-26T04:37:04;20.95;;;9.25;;
17818;SDS011;9034;50.284;19.310;2023-06-26T04:38:06;10.75;;;8.02;;
17818;SDS011;9034;50.284;19.310;2023-06-26T04:39:10;13.05;;;8.27;;
17818;SDS011;9034;50.284;19.310;2023-06-26T04:40:13;11.30;;;7.60;;
17818;SDS011;9034;50.284;19.310;2023-06-26T04:41:15;16.95;;;9.65;;
17818;SDS011;9034;50.284;19.310;2023-06-26T04:42:18;16.67;;;8.93;;
17818;SDS011;9034;50.284;19.310;2023-06-26T04:43:23;13.40;;;7.95;;
17818;SDS011;9034;50.284;19.310;2023-06-26T04:44:25;15.98;;;8.05;;
17818;SDS011;9034;50.284;19.310;2023-06-26T04:45:27;15.10;;;8.15;;
17818;SDS011;9034;50.284;19.310;2023-06-26T04:46:30;12.15;;;7.85;;
17818;SDS011;9034;50.284;19.310;2023-06-26T04:47:32;9.65;;;7.72;;
17818;SDS011;9034;50.284;19.310;2023-06-26T04:48:35;15.88;;;8.15;;
17818;SDS011;9034;50.284;19.310;2023-06-26T04:49:38;14.50;;;8.15;;
17818;SDS011;9034;50.284;19.310;2023-06-26T04:50:46;12.90;;;8.50;;
17818;SDS011;9034;50.284;19.310;2023-06-26T04:51:55;13.95;;;8.27;;
17818;SDS011;9034;50.284;19.310;2023-06-26T04:53:01;16.07;;;7.73;;
17818;SDS011;9034;50.284;19.310;2023-06-26T04:54:03;14.50;;;8.37;;
17818;SDS011;9034;50.284;19.310;2023-06-26T04:55:06;13.17;;;8.10;;
17818;SDS011;9034;50.284;19.310;2023-06-26T04:56:09;12.20;;;8.03;;
17818;SDS011;9034;50.284;19.310;2023-06-26T04:57:12;10.37;;;8.07;;
17818;SDS011;9034;50.284;19.310;2023-06-26T04:58:16;10.70;;;8.87;;
17818;SDS011;9034;50.284;19.310;2023-06-26T04:59:19;18.20;;;8.50;;
17818;SDS011;9034;50.284;19.310;2023-06-26T05:00:21;13.60;;;9.17;;
17818;SDS011;9034;50.284;19.310;2023-06-26T05:01:24;12.60;;;9.13;;
17818;SDS011;9034;50.284;19.310;2023-06-26T05:02:26;16.17;;;9.47;;
17818;SDS011;9034;50.284;19.310;2023-06-26T05:03:29;14.23;;;10.17;;
17818;SDS011;9034;50.284;19.310;2023-06-26T05:04:31;14.60;;;9.50;;
17818;SDS011;9034;50.284;19.310;2023-06-26T05:05:35;19.20;;;10.17;;
17818;SDS011;9034;50.284;19.310;2023-06-26T05:06:37;18.23;;;9.40;;
17818;SDS011;9034;50.284;19.310;2023-06-26T05:07:40;15.55;;;10.02;;
17818;SDS011;9034;50.284;19.310;2023-06-26T05:08:42;17.67;;;10.27;;
17818;SDS011;9034;50.284;19.310;2023-06-26T05:09:45;19.13;;;10.10;;
17818;SDS011;9034;50.284;19.310;2023-06-26T05:10:47;17.95;;;10.80;;
17818;SDS011;9034;50.284;19.310;2023-06-26T05:11:50;20.30;;;11.50;;
17818;SDS011;9034;50.284;19.310;2023-06-26T05:12:52;19.73;;;11.23;;
17818;SDS011;9034;50.284;19.310;2023-06-26T05:13:55;18.90;;;10.95;;
17818;SDS011;9034;50.284;19.310;2023-06-26T05:14:57;21.15;;;11.35;;
17818;SDS011;9034;50.284;19.310;2023-06-26T05:15:59;17.98;;;12.15;;
17818;SDS011;9034;50.284;19.310;2023-06-26T05:17:01;24.98;;;12.68;;
17818;SDS011;9034;50.284;19.310;2023-06-26T05:18:04;22.48;;;11.30;;
17818;SDS011;9034;50.284;19.310;2023-06-26T05:19:10;17.52;;;12.50;;
17818;SDS011;9034;50.284;19.310;2023-06-26T05:20:13;17.15;;;11.65;;
17818;SDS011;9034;50.284;19.310;2023-06-26T05:21:17;18.00;;;11.75;;
17818;SDS011;9034;50.284;19.310;2023-06-26T05:22:20;20.00;;;12.80;;
17818;SDS011;9034;50.284;19.310;2023-06-26T05:23:22;22.58;;;13.30;;
17818;SDS011;9034;50.284;19.310;2023-06-26T05:24:27;18.55;;;11.68;;
17818;SDS011;9034;50.284;19.310;2023-06-26T05:25:31;21.93;;;13.47;;
17818;SDS011;9034;50.284;19.310;2023-06-26T05:26:35;21.48;;;12.23;;
17818;SDS011;9034;50.284;19.310;2023-06-26T05:27:38;21.30;;;14.60;;
17818;SDS011;9034;50.284;19.310;2023-06-26T05:28:41;19.33;;;11.60;;
17818;SDS011;9034;50.284;19.310;2023-06-26T05:29:46;14.70;;;9.10;;
17818;SDS011;9034;50.284;19.310;2023-06-26T05:30:48;12.20;;;7.70;;
17818;SDS011;9034;50.284;19.310;2023-06-26T05:31:54;10.43;;;7.90;;
17818;SDS011;9034;50.284;19.310;2023-06-26T05:32:58;16.53;;;8.47;;
17818;SDS011;9034;50.284;19.310;2023-06-26T05:34:01;14.57;;;8.57;;
17818;SDS011;9034;50.284;19.310;2023-06-26T05:35:06;16.63;;;8.73;;
17818;SDS011;9034;50.284;19.310;2023-06-26T05:36:08;15.77;;;8.90;;
17818;SDS011;9034;50.284;19.310;2023-06-26T05:37:13;12.03;;;8.43;;
17818;SDS011;9034;50.284;19.310;2023-06-26T05:38:16;11.53;;;8.07;;
17818;SDS011;9034;50.284;19.310;2023-06-26T05:39:20;10.33;;;7.33;;
17818;SDS011;9034;50.284;19.310;2023-06-26T05:40:22;11.00;;;7.90;;
17818;SDS011;9034;50.284;19.310;2023-06-26T05:41:25;10.37;;;7.63;;
17818;SDS011;9034;50.284;19.310;2023-06-26T05:42:28;9.77;;;7.37;;
17818;SDS011;9034;50.284;19.310;2023-06-26T05:43:31;11.97;;;7.40;;
17818;SDS011;9034;50.284;19.310;2023-06-26T05:44:35;13.10;;;8.10;;
17818;SDS011;9034;50.284;19.310;2023-06-26T05:45:39;11.70;;;7.83;;
17818;SDS011;9034;50.284;19.310;2023-06-26T05:46:41;10.53;;;7.63;;
17818;SDS011;9034;50.284;19.310;2023-06-26T05:47:45;9.17;;;7.50;;
17818;SDS011;9034;50.284;19.310;2023-06-26T05:48:48;9.13;;;7.13;;
17818;SDS011;9034;50.284;19.310;2023-06-26T05:49:50;12.60;;;7.77;;
17818;SDS011;9034;50.284;19.310;2023-06-26T05:50:56;9.67;;;6.73;;
17818;SDS011;9034;50.284;19.310;2023-06-26T05:51:59;11.20;;;8.37;;
17818;SDS011;9034;50.284;19.310;2023-06-26T05:53:03;11.63;;;7.40;;
17818;SDS011;9034;50.284;19.310;2023-06-26T05:54:07;10.67;;;8.03;;
17818;SDS011;9034;50.284;19.310;2023-06-26T05:55:11;10.33;;;7.30;;
17818;SDS011;9034;50.284;19.310;2023-06-26T05:56:14;10.60;;;8.10;;
17818;SDS011;9034;50.284;19.310;2023-06-26T05:57:17;16.67;;;12.00;;
17818;SDS011;9034;50.284;19.310;2023-06-26T05:58:20;12.07;;;7.97;;
17818;SDS011;9034;50.284;19.310;2023-06-26T05:59:24;12.93;;;7.73;;
17818;SDS011;9034;50.284;19.310;2023-06-26T06:00:27;13.17;;;6.97;;
17818;SDS011;9034;50.284;19.310;2023-06-26T06:01:30;9.60;;;7.00;;
17818;SDS011;9034;50.284;19.310;2023-06-26T06:02:32;9.97;;;7.47;;
17818;SDS011;9034;50.284;19.310;2023-06-26T06:03:35;9.97;;;7.60;;
17818;SDS011;9034;50.284;19.310;2023-06-26T06:04:37;15.47;;;7.83;;
17818;SDS011;9034;50.284;19.310;2023-06-26T06:05:40;11.37;;;7.20;;
17818;SDS011;9034;50.284;19.310;2023-06-26T06:06:41;13.07;;;6.93;;
17818;SDS011;9034;50.284;19.310;2023-06-26T06:07:44;13.63;;;7.40;;
17818;SDS011;9034;50.284;19.310;2023-06-26T06:08:47;13.63;;;8.33;;
17818;SDS011;9034;50.284;19.310;2023-06-26T06:09:50;10.37;;;6.83;;
17818;SDS011;9034;50.284;19.310;2023-06-26T06:10:52;9.67;;;7.17;;
17818;SDS011;9034;50.284;19.310;2023-06-26T06:11:55;9.20;;;6.93;;
17818;SDS011;9034;50.284;19.310;2023-06-26T06:12:57;8.07;;;6.83;;
17818;SDS011;9034;50.284;19.310;2023-06-26T06:14:00;10.73;;;6.77;;
17818;SDS011;9034;50.284;19.310;2023-06-26T06:15:02;7.70;;;6.27;;
17818;SDS011;9034;50.284;19.310;2023-06-26T06:16:05;6.33;;;5.67;;
17818;SDS011;9034;50.284;19.310;2023-06-26T06:17:06;9.40;;;6.83;;
17818;SDS011;9034;50.284;19.310;2023-06-26T06:18:09;10.80;;;7.33;;
17818;SDS011;9034;50.284;19.310;2023-06-26T06:19:11;10.67;;;6.97;;
17818;SDS011;9034;50.284;19.310;2023-06-26T06:20:15;9.90;;;6.83;;